WAT820 SPJL-SLCB
Flight info
| Callsign | WAT820 |
|---|---|
| Flight time | 1h 17m |
| Altitude | 19000 |
| Route | JUL DCT PAZ DCT VAPAS DCT CBA |
| Aircraft | DC6/M-SDE1FGHIRWXY/S |
Departure
| Time | 2026-05-07 15:15 |
|---|---|
| Airport | Inca Manco Capac International Airport (SPJL) |
Arrival
| Time | 2026-05-07 16:32 |
|---|---|
| Airport | Jorge Wilsterman International Airport (SLCB) |
| Time | Latitude | Longitude | Altitude | Speed | Heading |
|---|---|---|---|---|---|
| 2026-05-07 14:49 | -15.46986 | -70.15635 | 12558 ft | 0 kts | 167° |
| 2026-05-07 15:08 | -15.46988 | -70.15634 | 12558 ft | 1 kts | 149° |
| 2026-05-07 15:08 | -15.46991 | -70.15619 | 12557 ft | 4 kts | 70° |
| 2026-05-07 15:09 | -15.46962 | -70.15580 | 12557 ft | 12 kts | 63° |
| 2026-05-07 15:09 | -15.46882 | -70.15503 | 12557 ft | 20 kts | 19° |
| 2026-05-07 15:09 | -15.46817 | -70.15453 | 12558 ft | 4 kts | 346° |
| 2026-05-07 15:09 | -15.46795 | -70.15501 | 12557 ft | 14 kts | 282° |
| 2026-05-07 15:10 | -15.46747 | -70.15649 | 12557 ft | 28 kts | 292° |
| 2026-05-07 15:10 | -15.46671 | -70.15843 | 12558 ft | 30 kts | 292° |
| 2026-05-07 15:10 | -15.46589 | -70.16049 | 12559 ft | 32 kts | 292° |
| 2026-05-07 15:10 | -15.46504 | -70.16270 | 12559 ft | 34 kts | 292° |
| 2026-05-07 15:11 | -15.46409 | -70.16507 | 12558 ft | 37 kts | 291° |
| 2026-05-07 15:11 | -15.46310 | -70.16760 | 12557 ft | 39 kts | 293° |
| 2026-05-07 15:11 | -15.46209 | -70.17020 | 12559 ft | 40 kts | 292° |
| 2026-05-07 15:11 | -15.46104 | -70.17288 | 12561 ft | 41 kts | 291° |
| 2026-05-07 15:12 | -15.46012 | -70.17517 | 12563 ft | 25 kts | 270° |
| 2026-05-07 15:12 | -15.46008 | -70.17603 | 12563 ft | 1 kts | 360° |
| 2026-05-07 15:12 | -15.46005 | -70.17603 | 12563 ft | 3 kts | 6° |
| 2026-05-07 15:12 | -15.45987 | -70.17562 | 12563 ft | 11 kts | 114° |
| 2026-05-07 15:13 | -15.46019 | -70.17505 | 12563 ft | 0 kts | 107° |
| 2026-05-07 15:13 | -15.46030 | -70.17470 | 12562 ft | 19 kts | 110° |
| 2026-05-07 15:13 | -15.46128 | -70.17225 | 12562 ft | 54 kts | 112° |
| 2026-05-07 15:13 | -15.46311 | -70.16759 | 12558 ft | 85 kts | 112° |
| 2026-05-07 15:14 | -15.46570 | -70.16100 | 12561 ft | 112 kts | 111° |
| 2026-05-07 15:14 | -15.46893 | -70.15275 | 12558 ft | 135 kts | 111° |
| 2026-05-07 15:14 | -15.47269 | -70.14322 | 12586 ft | 149 kts | 112° |
| 2026-05-07 15:14 | -15.47667 | -70.13314 | 12702 ft | 153 kts | 113° |
| 2026-05-07 15:15 | -15.48104 | -70.12292 | 12855 ft | 157 kts | 116° |
| 2026-05-07 15:15 | -15.48630 | -70.11287 | 12950 ft | 164 kts | 123° |
| 2026-05-07 15:15 | -15.49263 | -70.10248 | 13068 ft | 174 kts | 123° |
| 2026-05-07 15:15 | -15.49909 | -70.09184 | 13284 ft | 177 kts | 121° |
| 2026-05-07 15:16 | -15.50600 | -70.08100 | 13446 ft | 185 kts | 124° |
| 2026-05-07 15:16 | -15.51299 | -70.06947 | 13598 ft | 193 kts | 121° |
| 2026-05-07 15:16 | -15.51996 | -70.05685 | 13680 ft | 204 kts | 120° |
| 2026-05-07 15:16 | -15.52711 | -70.04380 | 13795 ft | 212 kts | 120° |
| 2026-05-07 15:17 | -15.53441 | -70.03050 | 13983 ft | 218 kts | 120° |
| 2026-05-07 15:17 | -15.54213 | -70.01656 | 14193 ft | 222 kts | 120° |
| 2026-05-07 15:17 | -15.54967 | -70.00272 | 14391 ft | 225 kts | 120° |
| 2026-05-07 15:17 | -15.55743 | -69.98862 | 14633 ft | 225 kts | 120° |
| 2026-05-07 15:18 | -15.56525 | -69.97456 | 14864 ft | 223 kts | 120° |
| 2026-05-07 15:18 | -15.57285 | -69.96071 | 15067 ft | 219 kts | 120° |
| 2026-05-07 15:18 | -15.58030 | -69.94704 | 15248 ft | 216 kts | 120° |
| 2026-05-07 15:18 | -15.58770 | -69.93361 | 15398 ft | 214 kts | 121° |
| 2026-05-07 15:19 | -15.59438 | -69.92159 | 15539 ft | 212 kts | 120° |
| 2026-05-07 15:19 | -15.60166 | -69.90835 | 15681 ft | 211 kts | 120° |
| 2026-05-07 15:19 | -15.60888 | -69.89514 | 15767 ft | 210 kts | 120° |
| 2026-05-07 15:19 | -15.61610 | -69.88198 | 15858 ft | 209 kts | 120° |
| 2026-05-07 15:20 | -15.62331 | -69.86889 | 15938 ft | 209 kts | 120° |
| 2026-05-07 15:20 | -15.63049 | -69.85583 | 16020 ft | 208 kts | 120° |
| 2026-05-07 15:20 | -15.63768 | -69.84283 | 16144 ft | 207 kts | 120° |
| 2026-05-07 15:20 | -15.64478 | -69.82981 | 16269 ft | 207 kts | 120° |
| 2026-05-07 15:21 | -15.65188 | -69.81686 | 16398 ft | 207 kts | 120° |
| 2026-05-07 15:21 | -15.65900 | -69.80392 | 16572 ft | 206 kts | 123° |
| 2026-05-07 15:21 | -15.66614 | -69.79105 | 16767 ft | 206 kts | 121° |
| 2026-05-07 15:21 | -15.67308 | -69.77812 | 16971 ft | 205 kts | 120° |
| 2026-05-07 15:22 | -15.68015 | -69.76525 | 17204 ft | 205 kts | 121° |
| 2026-05-07 15:22 | -15.68725 | -69.75250 | 17320 ft | 204 kts | 121° |
| 2026-05-07 15:22 | -15.69429 | -69.73968 | 17364 ft | 204 kts | 121° |
| 2026-05-07 15:22 | -15.70128 | -69.72685 | 17408 ft | 204 kts | 121° |
| 2026-05-07 15:23 | -15.70832 | -69.71403 | 17466 ft | 204 kts | 121° |
| 2026-05-07 15:23 | -15.71535 | -69.70122 | 17520 ft | 205 kts | 121° |
| 2026-05-07 15:23 | -15.72239 | -69.68833 | 17639 ft | 205 kts | 121° |
| 2026-05-07 15:23 | -15.72946 | -69.67545 | 17755 ft | 206 kts | 121° |
| 2026-05-07 15:24 | -15.73655 | -69.66252 | 17873 ft | 206 kts | 121° |
| 2026-05-07 15:24 | -15.74363 | -69.64960 | 17984 ft | 206 kts | 121° |
| 2026-05-07 15:24 | -15.75072 | -69.63666 | 18096 ft | 206 kts | 121° |
| 2026-05-07 15:24 | -15.75781 | -69.62371 | 18204 ft | 206 kts | 121° |
| 2026-05-07 15:25 | -15.76491 | -69.61076 | 18316 ft | 206 kts | 121° |
| 2026-05-07 15:25 | -15.77200 | -69.59781 | 18421 ft | 207 kts | 121° |
| 2026-05-07 15:25 | -15.77911 | -69.58484 | 18515 ft | 207 kts | 121° |
| 2026-05-07 15:25 | -15.78620 | -69.57185 | 18606 ft | 207 kts | 121° |
| 2026-05-07 15:26 | -15.79328 | -69.55892 | 18741 ft | 205 kts | 121° |
| 2026-05-07 15:26 | -15.80028 | -69.54612 | 18885 ft | 203 kts | 121° |
| 2026-05-07 15:26 | -15.80724 | -69.53339 | 19007 ft | 203 kts | 121° |
| 2026-05-07 15:26 | -15.81420 | -69.52068 | 19134 ft | 202 kts | 121° |
| 2026-05-07 15:27 | -15.82113 | -69.50799 | 19229 ft | 203 kts | 121° |
| 2026-05-07 15:27 | -15.82826 | -69.49498 | 19221 ft | 211 kts | 121° |
| 2026-05-07 15:27 | -15.83561 | -69.48151 | 19219 ft | 217 kts | 121° |
| 2026-05-07 15:27 | -15.84314 | -69.46776 | 19211 ft | 220 kts | 121° |
| 2026-05-07 15:28 | -15.85069 | -69.45393 | 19206 ft | 219 kts | 121° |
| 2026-05-07 15:28 | -15.85765 | -69.44117 | 19207 ft | 218 kts | 121° |
| 2026-05-07 15:28 | -15.86511 | -69.42751 | 19195 ft | 217 kts | 121° |
| 2026-05-07 15:28 | -15.87254 | -69.41391 | 19190 ft | 216 kts | 121° |
| 2026-05-07 15:29 | -15.87995 | -69.40037 | 19188 ft | 216 kts | 121° |
| 2026-05-07 15:29 | -15.88733 | -69.38684 | 19190 ft | 215 kts | 121° |
| 2026-05-07 15:29 | -15.89470 | -69.37333 | 19185 ft | 215 kts | 121° |
| 2026-05-07 15:29 | -15.90205 | -69.35986 | 19184 ft | 214 kts | 121° |
| 2026-05-07 15:30 | -15.90940 | -69.34639 | 19181 ft | 214 kts | 121° |
| 2026-05-07 15:30 | -15.91673 | -69.33297 | 19181 ft | 214 kts | 121° |
| 2026-05-07 15:30 | -15.92393 | -69.31976 | 19184 ft | 213 kts | 121° |
| 2026-05-07 15:30 | -15.93131 | -69.30633 | 19179 ft | 213 kts | 121° |
| 2026-05-07 15:31 | -15.93869 | -69.29306 | 19177 ft | 213 kts | 121° |
| 2026-05-07 15:31 | -15.94609 | -69.27967 | 19174 ft | 213 kts | 121° |
| 2026-05-07 15:31 | -15.95345 | -69.26636 | 19171 ft | 212 kts | 121° |
| 2026-05-07 15:31 | -15.96079 | -69.25308 | 19171 ft | 212 kts | 121° |
| 2026-05-07 15:32 | -15.96811 | -69.23981 | 19170 ft | 211 kts | 121° |
| 2026-05-07 15:32 | -15.97543 | -69.22657 | 19169 ft | 211 kts | 121° |
| 2026-05-07 15:32 | -15.98270 | -69.21336 | 19165 ft | 211 kts | 121° |
| 2026-05-07 15:32 | -15.98998 | -69.20013 | 19175 ft | 212 kts | 121° |
| 2026-05-07 15:33 | -15.99749 | -69.18673 | 19182 ft | 216 kts | 122° |
| 2026-05-07 15:33 | -16.00504 | -69.17306 | 19174 ft | 218 kts | 121° |
| 2026-05-07 15:33 | -16.01248 | -69.15928 | 19188 ft | 221 kts | 121° |
| 2026-05-07 15:33 | -16.02021 | -69.14534 | 19166 ft | 222 kts | 122° |
| 2026-05-07 15:34 | -16.02793 | -69.13143 | 19169 ft | 222 kts | 121° |
| 2026-05-07 15:34 | -16.03557 | -69.11754 | 19166 ft | 221 kts | 121° |
| 2026-05-07 15:34 | -16.04323 | -69.10367 | 19162 ft | 221 kts | 121° |
| 2026-05-07 15:34 | -16.05085 | -69.08981 | 19161 ft | 221 kts | 121° |
| 2026-05-07 15:35 | -16.05846 | -69.07602 | 19159 ft | 220 kts | 121° |
| 2026-05-07 15:35 | -16.06606 | -69.06221 | 19157 ft | 220 kts | 121° |
| 2026-05-07 15:35 | -16.07364 | -69.04845 | 19152 ft | 219 kts | 121° |
| 2026-05-07 15:35 | -16.08122 | -69.03470 | 19149 ft | 219 kts | 121° |
| 2026-05-07 15:36 | -16.08877 | -69.02096 | 19148 ft | 218 kts | 121° |
| 2026-05-07 15:36 | -16.09631 | -69.00727 | 19144 ft | 218 kts | 121° |
| 2026-05-07 15:36 | -16.10384 | -68.99361 | 19140 ft | 218 kts | 121° |
| 2026-05-07 15:36 | -16.11134 | -68.97996 | 19145 ft | 217 kts | 121° |
| 2026-05-07 15:37 | -16.11885 | -68.96631 | 19141 ft | 217 kts | 121° |
| 2026-05-07 15:37 | -16.12633 | -68.95272 | 19144 ft | 217 kts | 121° |
| 2026-05-07 15:37 | -16.13380 | -68.93913 | 19138 ft | 216 kts | 121° |
| 2026-05-07 15:37 | -16.14127 | -68.92553 | 19145 ft | 216 kts | 121° |
| 2026-05-07 15:38 | -16.14872 | -68.91199 | 19142 ft | 216 kts | 121° |
| 2026-05-07 15:38 | -16.15617 | -68.89845 | 19142 ft | 215 kts | 121° |
| 2026-05-07 15:38 | -16.16360 | -68.88493 | 19140 ft | 215 kts | 121° |
| 2026-05-07 15:38 | -16.17101 | -68.87143 | 19141 ft | 215 kts | 121° |
| 2026-05-07 15:39 | -16.17592 | -68.86248 | 19142 ft | 215 kts | 121° |
| 2026-05-07 15:39 | -16.18332 | -68.84901 | 19143 ft | 215 kts | 121° |
| 2026-05-07 15:39 | -16.19076 | -68.83551 | 19147 ft | 216 kts | 121° |
| 2026-05-07 15:39 | -16.20069 | -68.81741 | 19167 ft | 220 kts | 121° |
| 2026-05-07 15:40 | -16.20829 | -68.80350 | 19155 ft | 221 kts | 121° |
| 2026-05-07 15:40 | -16.21344 | -68.79412 | 19155 ft | 221 kts | 121° |
| 2026-05-07 15:40 | -16.22351 | -68.77578 | 19153 ft | 220 kts | 121° |
| 2026-05-07 15:40 | -16.22864 | -68.76646 | 19154 ft | 220 kts | 121° |
| 2026-05-07 15:41 | -16.23612 | -68.75282 | 19153 ft | 219 kts | 121° |
| 2026-05-07 15:41 | -16.24377 | -68.73887 | 19149 ft | 219 kts | 121° |
| 2026-05-07 15:41 | -16.25131 | -68.72511 | 19149 ft | 218 kts | 122° |
| 2026-05-07 15:41 | -16.25884 | -68.71139 | 19146 ft | 218 kts | 121° |
| 2026-05-07 15:42 | -16.26633 | -68.69770 | 19143 ft | 218 kts | 121° |
| 2026-05-07 15:42 | -16.27382 | -68.68404 | 19143 ft | 217 kts | 121° |
| 2026-05-07 15:42 | -16.28131 | -68.67036 | 19139 ft | 217 kts | 122° |
| 2026-05-07 15:42 | -16.28880 | -68.65669 | 19140 ft | 217 kts | 121° |
| 2026-05-07 15:43 | -16.29610 | -68.64338 | 19139 ft | 217 kts | 121° |
| 2026-05-07 15:43 | -16.30358 | -68.62971 | 19141 ft | 217 kts | 122° |
| 2026-05-07 15:43 | -16.31095 | -68.61624 | 19140 ft | 217 kts | 121° |
| 2026-05-07 15:43 | -16.31851 | -68.60242 | 19141 ft | 217 kts | 121° |
| 2026-05-07 15:44 | -16.32597 | -68.58880 | 19143 ft | 216 kts | 122° |
| 2026-05-07 15:44 | -16.33323 | -68.57531 | 19147 ft | 218 kts | 122° |
| 2026-05-07 15:44 | -16.34086 | -68.56164 | 19150 ft | 218 kts | 122° |
| 2026-05-07 15:44 | -16.34842 | -68.54789 | 19152 ft | 219 kts | 121° |
| 2026-05-07 15:45 | -16.35587 | -68.53401 | 19155 ft | 219 kts | 121° |
| 2026-05-07 15:45 | -16.36348 | -68.52023 | 19203 ft | 220 kts | 122° |
| 2026-05-07 15:45 | -16.37109 | -68.50635 | 19263 ft | 222 kts | 121° |
| 2026-05-07 15:45 | -16.37871 | -68.49236 | 19320 ft | 222 kts | 121° |
| 2026-05-07 15:46 | -16.39407 | -68.46424 | 19429 ft | 224 kts | 121° |
| 2026-05-07 15:46 | -16.40176 | -68.45012 | 19473 ft | 224 kts | 121° |
| 2026-05-07 15:46 | -16.40948 | -68.43604 | 19518 ft | 224 kts | 122° |
| 2026-05-07 15:47 | -16.41720 | -68.42190 | 19556 ft | 225 kts | 121° |
| 2026-05-07 15:47 | -16.42493 | -68.40768 | 19588 ft | 226 kts | 121° |
| 2026-05-07 15:47 | -16.43273 | -68.39341 | 19618 ft | 227 kts | 122° |
| 2026-05-07 15:47 | -16.44059 | -68.37909 | 19648 ft | 229 kts | 121° |
| 2026-05-07 15:48 | -16.44842 | -68.36464 | 19673 ft | 229 kts | 121° |
| 2026-05-07 15:48 | -16.45624 | -68.35023 | 19693 ft | 229 kts | 122° |
| 2026-05-07 15:48 | -16.46416 | -68.33585 | 19713 ft | 229 kts | 122° |
| 2026-05-07 15:48 | -16.47202 | -68.32142 | 19721 ft | 229 kts | 121° |
| 2026-05-07 15:49 | -16.47983 | -68.30701 | 19733 ft | 229 kts | 122° |
| 2026-05-07 15:49 | -16.48770 | -68.29258 | 19737 ft | 230 kts | 122° |
| 2026-05-07 15:49 | -16.49563 | -68.27808 | 19735 ft | 230 kts | 122° |
| 2026-05-07 15:49 | -16.50352 | -68.26356 | 19737 ft | 230 kts | 121° |
| 2026-05-07 15:50 | -16.51141 | -68.24901 | 19741 ft | 231 kts | 122° |
| 2026-05-07 15:50 | -16.51933 | -68.23453 | 19741 ft | 231 kts | 122° |
| 2026-05-07 15:50 | -16.52726 | -68.21997 | 19740 ft | 231 kts | 121° |
| 2026-05-07 15:50 | -16.53519 | -68.20541 | 19740 ft | 231 kts | 122° |
| 2026-05-07 15:51 | -16.54311 | -68.19084 | 19738 ft | 231 kts | 122° |
| 2026-05-07 15:51 | -16.55104 | -68.17625 | 19736 ft | 232 kts | 121° |
| 2026-05-07 15:51 | -16.55883 | -68.16189 | 19738 ft | 230 kts | 122° |
| 2026-05-07 15:51 | -16.56677 | -68.14733 | 19737 ft | 232 kts | 122° |
| 2026-05-07 15:52 | -16.57470 | -68.13273 | 19737 ft | 232 kts | 122° |
| 2026-05-07 15:52 | -16.58273 | -68.11805 | 19737 ft | 232 kts | 121° |
| 2026-05-07 15:52 | -16.59067 | -68.10339 | 19736 ft | 232 kts | 121° |
| 2026-05-07 15:52 | -16.59859 | -68.08873 | 19722 ft | 232 kts | 121° |
| 2026-05-07 15:53 | -16.60656 | -68.07408 | 19705 ft | 232 kts | 122° |
| 2026-05-07 15:53 | -16.61456 | -68.05943 | 19689 ft | 232 kts | 121° |
| 2026-05-07 15:53 | -16.62252 | -68.04474 | 19667 ft | 233 kts | 121° |
| 2026-05-07 15:53 | -16.63050 | -68.03004 | 19642 ft | 233 kts | 121° |
| 2026-05-07 15:54 | -16.63847 | -68.01526 | 19605 ft | 233 kts | 121° |
| 2026-05-07 15:54 | -16.64653 | -68.00055 | 19573 ft | 235 kts | 121° |
| 2026-05-07 15:54 | -16.65454 | -67.98568 | 19526 ft | 236 kts | 121° |
| 2026-05-07 15:54 | -16.66265 | -67.97080 | 19489 ft | 237 kts | 121° |
| 2026-05-07 15:55 | -16.67075 | -67.95587 | 19436 ft | 237 kts | 121° |
| 2026-05-07 15:55 | -16.67880 | -67.94086 | 19379 ft | 237 kts | 121° |
| 2026-05-07 15:55 | -16.68696 | -67.92589 | 19316 ft | 238 kts | 121° |
| 2026-05-07 15:55 | -16.69511 | -67.91091 | 19252 ft | 238 kts | 121° |
| 2026-05-07 15:56 | -16.70327 | -67.89588 | 19181 ft | 238 kts | 121° |
| 2026-05-07 15:56 | -16.71140 | -67.88089 | 19106 ft | 238 kts | 121° |
| 2026-05-07 15:56 | -16.71951 | -67.86579 | 19103 ft | 239 kts | 121° |
| 2026-05-07 15:56 | -16.72771 | -67.85072 | 19103 ft | 239 kts | 121° |
| 2026-05-07 15:57 | -16.73592 | -67.83557 | 19099 ft | 241 kts | 121° |
| 2026-05-07 15:57 | -16.74414 | -67.82033 | 19110 ft | 241 kts | 121° |
| 2026-05-07 15:57 | -16.75238 | -67.80509 | 19104 ft | 241 kts | 121° |
| 2026-05-07 15:57 | -16.76065 | -67.78982 | 19105 ft | 241 kts | 121° |
| 2026-05-07 15:58 | -16.76894 | -67.77458 | 19108 ft | 242 kts | 121° |
| 2026-05-07 15:58 | -16.77714 | -67.75934 | 19106 ft | 241 kts | 121° |
| 2026-05-07 15:58 | -16.78537 | -67.74412 | 19109 ft | 241 kts | 121° |
| 2026-05-07 15:58 | -16.79359 | -67.72892 | 19108 ft | 240 kts | 121° |
| 2026-05-07 15:59 | -16.80179 | -67.71375 | 19108 ft | 239 kts | 121° |
| 2026-05-07 15:59 | -16.80995 | -67.69863 | 19113 ft | 239 kts | 121° |
| 2026-05-07 15:59 | -16.81806 | -67.68357 | 19106 ft | 237 kts | 121° |
| 2026-05-07 15:59 | -16.82614 | -67.66863 | 19109 ft | 237 kts | 121° |
| 2026-05-07 16:00 | -16.83423 | -67.65367 | 19113 ft | 236 kts | 121° |
| 2026-05-07 16:00 | -16.84234 | -67.63873 | 19118 ft | 236 kts | 121° |
| 2026-05-07 16:00 | -16.85036 | -67.62376 | 19118 ft | 236 kts | 121° |
| 2026-05-07 16:00 | -16.85837 | -67.60885 | 19120 ft | 235 kts | 121° |
| 2026-05-07 16:01 | -16.86631 | -67.59420 | 19128 ft | 235 kts | 121° |
| 2026-05-07 16:01 | -16.87437 | -67.57930 | 19124 ft | 236 kts | 122° |
| 2026-05-07 16:01 | -16.88242 | -67.56440 | 19129 ft | 236 kts | 121° |
| 2026-05-07 16:01 | -16.89045 | -67.54947 | 19153 ft | 234 kts | 121° |
| 2026-05-07 16:02 | -16.89846 | -67.53462 | 19146 ft | 235 kts | 122° |
| 2026-05-07 16:02 | -16.90649 | -67.51972 | 19148 ft | 235 kts | 121° |
| 2026-05-07 16:02 | -16.91448 | -67.50481 | 19153 ft | 236 kts | 121° |
| 2026-05-07 16:02 | -16.92255 | -67.48986 | 19163 ft | 237 kts | 121° |
| 2026-05-07 16:03 | -16.93068 | -67.47477 | 19171 ft | 240 kts | 121° |
| 2026-05-07 16:03 | -16.93891 | -67.45950 | 19171 ft | 243 kts | 121° |
| 2026-05-07 16:03 | -16.94712 | -67.44405 | 19174 ft | 244 kts | 121° |
| 2026-05-07 16:03 | -16.95542 | -67.42853 | 19187 ft | 245 kts | 121° |
| 2026-05-07 16:04 | -16.96407 | -67.41300 | 19177 ft | 249 kts | 121° |
| 2026-05-07 16:04 | -16.97059 | -67.40086 | 19187 ft | 251 kts | 122° |
| 2026-05-07 16:04 | -16.97911 | -67.38492 | 19188 ft | 252 kts | 121° |
| 2026-05-07 16:04 | -16.98751 | -67.36895 | 19191 ft | 251 kts | 120° |
| 2026-05-07 16:05 | -16.99610 | -67.35292 | 19179 ft | 254 kts | 121° |
| 2026-05-07 16:05 | -17.00500 | -67.33705 | 19199 ft | 254 kts | 123° |
| 2026-05-07 16:05 | -17.01503 | -67.32171 | 19196 ft | 256 kts | 129° |
| 2026-05-07 16:05 | -17.02621 | -67.30730 | 19193 ft | 255 kts | 133° |
| 2026-05-07 16:06 | -17.03778 | -67.29327 | 19192 ft | 255 kts | 132° |
| 2026-05-07 16:06 | -17.04910 | -67.27909 | 19194 ft | 253 kts | 132° |
| 2026-05-07 16:06 | -17.06035 | -67.26484 | 19202 ft | 256 kts | 132° |
| 2026-05-07 16:06 | -17.07152 | -67.25045 | 19190 ft | 255 kts | 128° |
| 2026-05-07 16:07 | -17.08022 | -67.23423 | 19196 ft | 256 kts | 117° |
| 2026-05-07 16:07 | -17.08765 | -67.21726 | 19190 ft | 257 kts | 117° |
| 2026-05-07 16:07 | -17.09589 | -67.20082 | 19191 ft | 255 kts | 122° |
| 2026-05-07 16:07 | -17.10462 | -67.18475 | 19189 ft | 253 kts | 121° |
| 2026-05-07 16:08 | -17.11313 | -67.16866 | 19192 ft | 253 kts | 121° |
| 2026-05-07 16:08 | -17.12148 | -67.15246 | 19193 ft | 253 kts | 120° |
| 2026-05-07 16:08 | -17.12982 | -67.13630 | 19191 ft | 252 kts | 121° |
| 2026-05-07 16:08 | -17.13818 | -67.12020 | 19191 ft | 252 kts | 121° |
| 2026-05-07 16:09 | -17.14666 | -67.10391 | 19083 ft | 258 kts | 120° |
| 2026-05-07 16:09 | -17.15534 | -67.08735 | 18986 ft | 261 kts | 121° |
| 2026-05-07 16:09 | -17.16395 | -67.07090 | 18965 ft | 261 kts | 120° |
| 2026-05-07 16:09 | -17.17251 | -67.05424 | 18958 ft | 260 kts | 120° |
| 2026-05-07 16:10 | -17.18106 | -67.03767 | 18962 ft | 258 kts | 121° |
| 2026-05-07 16:10 | -17.18966 | -67.02123 | 18961 ft | 257 kts | 121° |
| 2026-05-07 16:10 | -17.19819 | -67.00479 | 18960 ft | 257 kts | 120° |
| 2026-05-07 16:10 | -17.20667 | -66.98840 | 18951 ft | 255 kts | 120° |
| 2026-05-07 16:11 | -17.21517 | -66.97220 | 18946 ft | 253 kts | 120° |
| 2026-05-07 16:11 | -17.22350 | -66.95606 | 18952 ft | 252 kts | 120° |
| 2026-05-07 16:11 | -17.23178 | -66.93997 | 18957 ft | 250 kts | 120° |
| 2026-05-07 16:11 | -17.24006 | -66.92403 | 18960 ft | 250 kts | 120° |
| 2026-05-07 16:12 | -17.24835 | -66.90813 | 18953 ft | 249 kts | 120° |
| 2026-05-07 16:12 | -17.25659 | -66.89221 | 18951 ft | 249 kts | 120° |
| 2026-05-07 16:12 | -17.26480 | -66.87628 | 18949 ft | 248 kts | 120° |
| 2026-05-07 16:12 | -17.27303 | -66.86045 | 18962 ft | 248 kts | 120° |
| 2026-05-07 16:13 | -17.28122 | -66.84455 | 18951 ft | 248 kts | 119° |
| 2026-05-07 16:13 | -17.28944 | -66.82866 | 18962 ft | 248 kts | 120° |
| 2026-05-07 16:13 | -17.29777 | -66.81284 | 18963 ft | 249 kts | 121° |
| 2026-05-07 16:13 | -17.30603 | -66.79700 | 18960 ft | 248 kts | 120° |
| 2026-05-07 16:14 | -17.31403 | -66.78108 | 18967 ft | 245 kts | 119° |
| 2026-05-07 16:14 | -17.32218 | -66.76543 | 18973 ft | 244 kts | 121° |
| 2026-05-07 16:14 | -17.33045 | -66.74965 | 18709 ft | 253 kts | 120° |
| 2026-05-07 16:14 | -17.33891 | -66.73318 | 18378 ft | 261 kts | 120° |
| 2026-05-07 16:15 | -17.34764 | -66.71622 | 18043 ft | 267 kts | 120° |
| 2026-05-07 16:15 | -17.35655 | -66.69910 | 17745 ft | 266 kts | 120° |
| 2026-05-07 16:15 | -17.36520 | -66.68227 | 17716 ft | 260 kts | 119° |
| 2026-05-07 16:15 | -17.37354 | -66.66592 | 17718 ft | 256 kts | 120° |
| 2026-05-07 16:16 | -17.38202 | -66.64963 | 17723 ft | 253 kts | 120° |
| 2026-05-07 16:16 | -17.39045 | -66.63354 | 17716 ft | 252 kts | 120° |
| 2026-05-07 16:16 | -17.39873 | -66.61731 | 17712 ft | 252 kts | 119° |
| 2026-05-07 16:16 | -17.40699 | -66.60117 | 17724 ft | 252 kts | 121° |
| 2026-05-07 16:17 | -17.41541 | -66.58513 | 17714 ft | 252 kts | 120° |
| 2026-05-07 16:17 | -17.42371 | -66.56904 | 17713 ft | 251 kts | 119° |
| 2026-05-07 16:17 | -17.43189 | -66.55298 | 17715 ft | 250 kts | 120° |
| 2026-05-07 16:17 | -17.44013 | -66.53699 | 17722 ft | 249 kts | 119° |
| 2026-05-07 16:18 | -17.44836 | -66.52098 | 17730 ft | 250 kts | 120° |
| 2026-05-07 16:18 | -17.45669 | -66.50492 | 17730 ft | 252 kts | 120° |
| 2026-05-07 16:18 | -17.46502 | -66.48873 | 17727 ft | 253 kts | 120° |
| 2026-05-07 16:18 | -17.47336 | -66.47256 | 17733 ft | 252 kts | 119° |
| 2026-05-07 16:19 | -17.48165 | -66.45638 | 17721 ft | 251 kts | 120° |
| 2026-05-07 16:19 | -17.48991 | -66.44035 | 17726 ft | 250 kts | 120° |
| 2026-05-07 16:19 | -17.49824 | -66.42432 | 17720 ft | 251 kts | 120° |
| 2026-05-07 16:19 | -17.50641 | -66.40835 | 17735 ft | 247 kts | 120° |
| 2026-05-07 16:20 | -17.51455 | -66.39250 | 17729 ft | 246 kts | 120° |
| 2026-05-07 16:20 | -17.52265 | -66.37669 | 17725 ft | 246 kts | 120° |
| 2026-05-07 16:20 | -17.53079 | -66.36095 | 17727 ft | 246 kts | 120° |
| 2026-05-07 16:20 | -17.53887 | -66.34518 | 17731 ft | 246 kts | 119° |
| 2026-05-07 16:21 | -17.54697 | -66.32943 | 17722 ft | 245 kts | 119° |
| 2026-05-07 16:21 | -17.55506 | -66.31366 | 17731 ft | 247 kts | 120° |
| 2026-05-07 16:21 | -17.56319 | -66.29781 | 17729 ft | 247 kts | 119° |
| 2026-05-07 16:21 | -17.57131 | -66.28198 | 17725 ft | 246 kts | 119° |
| 2026-05-07 16:22 | -17.57944 | -66.26620 | 17734 ft | 247 kts | 120° |
| 2026-05-07 16:22 | -17.58751 | -66.25031 | 17731 ft | 248 kts | 119° |
| 2026-05-07 16:22 | -17.59575 | -66.23444 | 17730 ft | 248 kts | 120° |
| 2026-05-07 16:22 | -17.60392 | -66.21856 | 17727 ft | 247 kts | 120° |
| 2026-05-07 16:23 | -17.61204 | -66.20268 | 17717 ft | 246 kts | 119° |
| 2026-05-07 16:23 | -17.62011 | -66.18685 | 17720 ft | 246 kts | 120° |
| 2026-05-07 16:23 | -17.62819 | -66.17108 | 17711 ft | 245 kts | 120° |
| 2026-05-07 16:23 | -17.63628 | -66.15541 | 17706 ft | 244 kts | 120° |
| 2026-05-07 16:24 | -17.64428 | -66.13973 | 17698 ft | 244 kts | 119° |
| 2026-05-07 16:24 | -17.65226 | -66.12409 | 17696 ft | 242 kts | 120° |
| 2026-05-07 16:24 | -17.66024 | -66.10857 | 17694 ft | 240 kts | 120° |
| 2026-05-07 16:24 | -17.66814 | -66.09312 | 17686 ft | 241 kts | 119° |
| 2026-05-07 16:25 | -17.67605 | -66.07766 | 17677 ft | 240 kts | 120° |
| 2026-05-07 16:25 | -17.68389 | -66.06241 | 17667 ft | 240 kts | 120° |
| 2026-05-07 16:25 | -17.69098 | -66.04660 | 17650 ft | 241 kts | 108° |
| 2026-05-07 16:25 | -17.69240 | -66.02923 | 17608 ft | 242 kts | 84° |
| 2026-05-07 16:26 | -17.68710 | -66.01231 | 17335 ft | 245 kts | 60° |
| 2026-05-07 16:26 | -17.67600 | -65.99874 | 16723 ft | 251 kts | 36° |
| 2026-05-07 16:26 | -17.66027 | -65.99067 | 16105 ft | 255 kts | 13° |
| 2026-05-07 16:26 | -17.64847 | -65.98817 | 15756 ft | 257 kts | 7° |
| 2026-05-07 16:27 | -17.62520 | -65.98241 | 15062 ft | 262 kts | 14° |
| 2026-05-07 16:27 | -17.60727 | -65.97934 | 14504 ft | 262 kts | 357° |
| 2026-05-07 16:27 | -17.58957 | -65.98333 | 13969 ft | 261 kts | 334° |
| 2026-05-07 16:27 | -17.57476 | -65.99410 | 13426 ft | 259 kts | 312° |
| 2026-05-07 16:28 | -17.56412 | -66.00904 | 13101 ft | 251 kts | 301° |
| 2026-05-07 16:28 | -17.55400 | -66.02347 | 12902 ft | 241 kts | 308° |
| 2026-05-07 16:28 | -17.54300 | -66.03615 | 12757 ft | 229 kts | 311° |
| 2026-05-07 16:28 | -17.53253 | -66.04786 | 12602 ft | 211 kts | 311° |
| 2026-05-07 16:29 | -17.52303 | -66.05880 | 12420 ft | 194 kts | 308° |
| 2026-05-07 16:29 | -17.51743 | -66.06555 | 12294 ft | 178 kts | 310° |
| 2026-05-07 16:29 | -17.50934 | -66.07465 | 12032 ft | 164 kts | 310° |
| 2026-05-07 16:29 | -17.50194 | -66.08333 | 11832 ft | 155 kts | 310° |
| 2026-05-07 16:30 | -17.49480 | -66.09135 | 11571 ft | 148 kts | 311° |
| 2026-05-07 16:30 | -17.48798 | -66.09939 | 11297 ft | 145 kts | 311° |
| 2026-05-07 16:30 | -17.48131 | -66.10725 | 10872 ft | 144 kts | 311° |
| 2026-05-07 16:30 | -17.47449 | -66.11518 | 10244 ft | 154 kts | 312° |
| 2026-05-07 16:31 | -17.46714 | -66.12385 | 9612 ft | 160 kts | 310° |
| 2026-05-07 16:31 | -17.45972 | -66.13257 | 9197 ft | 159 kts | 312° |
| 2026-05-07 16:31 | -17.45224 | -66.14104 | 9054 ft | 158 kts | 312° |
| 2026-05-07 16:31 | -17.44486 | -66.14963 | 8826 ft | 159 kts | 311° |
| 2026-05-07 16:32 | -17.43734 | -66.15827 | 8553 ft | 161 kts | 309° |
| 2026-05-07 16:32 | -17.43010 | -66.16683 | 8386 ft | 150 kts | 311° |
| 2026-05-07 16:32 | -17.42366 | -66.17422 | 8362 ft | 117 kts | 313° |
| 2026-05-07 16:32 | -17.42078 | -66.17755 | 8363 ft | 13 kts | 307° |
| 2026-05-07 16:33 | -17.42017 | -66.17833 | 8362 ft | 16 kts | 315° |
| 2026-05-07 16:33 | -17.41926 | -66.17934 | 8361 ft | 22 kts | 311° |
| 2026-05-07 16:33 | -17.41791 | -66.17991 | 8361 ft | 24 kts | 19° |
| 2026-05-07 16:33 | -17.41623 | -66.17917 | 8361 ft | 24 kts | 38° |
| 2026-05-07 16:34 | -17.41559 | -66.17858 | 8361 ft | 0 kts | 39° |